Time;durP1;ratioP1;P1;durP2;ratioP2;P2;SDS_P1;SDS_P2;PMS_P1;PMS_P2;Temp;Humidity;BMP_temperature;BMP_pressure;BME280_temperature;BME280_humidity;BME280_pressure;Samples;Min_cycle;Max_cycle;Signal;HPM_P1;HPM_P2
2021/06/16 00:01:14;;;;;;;6.25;2.65;;;15.90;99.90;;;;;;5092879;28;20028;-46
2021/06/16 00:03:39;;;;;;;5.80;2.80;;;15.90;99.90;;;;;;5106067;28;20050;-44
2021/06/16 00:06:05;;;;;;;3.88;2.85;;;15.80;99.90;;;;;;5108427;28;20481;-45
2021/06/16 00:08:30;;;;;;;4.95;2.88;;;15.80;99.90;;;;;;5110404;27;20045;-45
2021/06/16 00:10:56;;;;;;;4.80;3.13;;;15.70;99.90;;;;;;5121410;28;20088;-45
2021/06/16 00:13:22;;;;;;;5.18;3.45;;;15.70;99.90;;;;;;5107605;28;20024;-46
2021/06/16 00:15:50;;;;;;;5.40;2.42;;;15.60;99.90;;;;;;5108300;28;20110;-46
2021/06/16 00:18:16;;;;;;;5.45;2.90;;;15.60;99.90;;;;;;5101795;28;20115;-44
2021/06/16 00:20:41;;;;;;;5.20;2.92;;;15.60;99.90;;;;;;5128621;27;20254;-45
2021/06/16 00:23:07;;;;;;;6.13;3.00;;;15.50;99.90;;;;;;5116756;28;20047;-45
2021/06/16 00:25:33;;;;;;;6.32;2.72;;;15.50;99.90;;;;;;5106669;28;20106;-46
2021/06/16 00:27:59;;;;;;;8.88;3.35;;;15.50;99.90;;;;;;5121045;27;20019;-48
2021/06/16 00:30:25;;;;;;;8.27;3.00;;;15.50;99.90;;;;;;5116169;28;20053;-46
2021/06/16 00:32:51;;;;;;;4.57;2.50;;;15.50;99.90;;;;;;5094795;28;20027;-46
2021/06/16 00:35:20;;;;;;;5.05;2.88;;;15.40;99.90;;;;;;5124060;27;20031;-48
2021/06/16 00:37:51;;;;;;;4.55;3.10;;;15.40;99.90;;;;;;5115031;27;20038;-45
2021/06/16 00:40:19;;;;;;;8.40;2.83;;;15.40;99.90;;;;;;5112123;28;20028;-45
2021/06/16 00:42:45;;;;;;;7.05;2.70;;;15.40;99.90;;;;;;5111078;28;20024;-46
2021/06/16 00:45:12;;;;;;;4.75;2.70;;;15.30;99.90;;;;;;5110323;28;20501;-46
2021/06/16 00:47:39;;;;;;;6.03;2.85;;;15.30;99.90;;;;;;5104816;28;20016;-48
2021/06/16 00:50:07;;;;;;;4.00;2.58;;;15.30;99.90;;;;;;5111896;28;20114;-46
2021/06/16 00:52:33;;;;;;;5.32;2.95;;;15.30;99.90;;;;;;5112365;28;20031;-45
2021/06/16 00:54:58;;;;;;;7.38;3.33;;;15.30;99.90;;;;;;5100374;27;20024;-46
2021/06/16 00:57:24;;;;;;;6.13;2.83;;;15.20;99.90;;;;;;5111317;28;20501;-45
2021/06/16 00:59:59;;;;;;;5.60;3.05;;;15.10;99.90;;;;;;5110505;28;20114;-45
2021/06/16 01:02:25;;;;;;;3.55;2.80;;;15.10;99.90;;;;;;5103912;28;20016;-45
2021/06/16 01:04:54;;;;;;;4.90;3.15;;;15.10;99.90;;;;;;5112305;27;20046;-45
2021/06/16 01:07:25;;;;;;;9.38;3.58;;;15.00;99.90;;;;;;5114222;27;20019;-46
2021/06/16 01:09:56;;;;;;;;;;;15.00;99.90;;;;;;5118925;27;20103;-45
2021/06/16 01:12:38;;;;;;;7.07;3.53;;;15.00;99.90;;;;;;5112359;28;19957;-46
2021/06/16 01:15:09;;;;;;;6.97;3.30;;;15.00;99.90;;;;;;5112339;28;20048;-45
2021/06/16 01:17:37;;;;;;;7.50;3.80;;;14.90;99.90;;;;;;5100859;28;20030;-43
2021/06/16 01:20:20;;;;;;;8.25;3.20;;;14.90;99.90;;;;;;5101457;28;20023;-46
2021/06/16 01:22:58;;;;;;;7.90;3.70;;;14.80;99.90;;;;;;5111351;27;20586;-40
2021/06/16 01:25:30;;;;;;;8.27;3.80;;;14.80;99.90;;;;;;5108599;27;20476;-40
2021/06/16 01:27:57;;;;;;;6.50;3.17;;;14.70;99.90;;;;;;5110658;28;20011;-40
2021/06/16 01:30:24;;;;;;;4.22;3.17;;;14.70;99.90;;;;;;5108163;28;20026;-41
2021/06/16 01:32:51;;;;;;;4.50;2.95;;;14.60;99.90;;;;;;5110678;28;20035;-42
2021/06/16 01:35:17;;;;;;;6.82;2.67;;;14.50;99.90;;;;;;5115646;27;20114;-42
2021/06/16 01:37:42;;;;;;;5.25;3.17;;;14.50;99.90;;;;;;5124105;27;20120;-42
2021/06/16 01:40:11;;;;;;;8.27;3.50;;;14.40;99.90;;;;;;5108690;28;20425;-42
2021/06/16 01:42:38;;;;;;;4.05;2.90;;;14.40;99.90;;;;;;5111547;27;20024;-41
2021/06/16 01:45:04;;;;;;;5.78;3.35;;;14.30;99.90;;;;;;5109870;28;20027;-42
2021/06/16 01:47:29;;;;;;;5.85;3.03;;;14.30;99.90;;;;;;5110684;28;20099;-41
2021/06/16 01:49:58;;;;;;;3.47;2.80;;;14.20;99.90;;;;;;5111252;28;20103;-41
2021/06/16 01:52:26;;;;;;;3.53;3.03;;;14.20;99.90;;;;;;5104186;28;20114;-41
2021/06/16 01:54:55;;;;;;;3.42;2.45;;;14.10;99.90;;;;;;5111242;28;20020;-42
2021/06/16 01:57:22;;;;;;;5.85;3.00;;;14.00;99.90;;;;;;5109288;27;20030;-42
2021/06/16 01:59:51;;;;;;;2.85;2.55;;;14.00;99.90;;;;;;5106804;28;20114;-41
2021/06/16 02:02:17;;;;;;;5.32;3.40;;;13.90;99.90;;;;;;5109587;28;20453;-42
2021/06/16 02:04:43;;;;;;;5.63;3.08;;;13.90;99.90;;;;;;5113750;27;20030;-41
2021/06/16 02:07:14;;;;;;;9.52;3.38;;;13.80;99.90;;;;;;5123006;27;20086;-42
2021/06/16 02:09:40;;;;;;;6.47;3.72;;;13.70;99.90;;;;;;5110938;27;20031;-42
2021/06/16 02:12:10;;;;;;;7.85;3.45;;;13.70;99.90;;;;;;5110787;28;20031;-41
2021/06/16 02:14:37;;;;;;;4.63;2.78;;;13.70;99.90;;;;;;5109202;28;20235;-42
2021/06/16 02:17:11;;;;;;;7.20;2.97;;;13.60;99.90;;;;;;5101648;28;20119;-43
2021/06/16 02:19:38;;;;;;;5.97;3.03;;;13.60;99.90;;;;;;5105905;28;20381;-42
2021/06/16 02:22:06;;;;;;;7.85;3.50;;;13.60;99.90;;;;;;5119142;27;20585;-43
2021/06/16 02:24:31;;;;;;;5.78;3.10;;;13.60;99.90;;;;;;5108323;28;20023;-43
2021/06/16 02:26:57;;;;;;;6.35;4.13;;;13.60;99.90;;;;;;5114131;27;20016;-42
2021/06/16 02:29:24;;;;;;;5.18;3.30;;;13.60;99.90;;;;;;5110030;28;20034;-42
2021/06/16 02:31:50;;;;;;;10.20;3.33;;;13.60;99.90;;;;;;5100755;28;20111;-43
2021/06/16 02:34:16;;;;;;;6.47;3.35;;;13.60;99.90;;;;;;5107764;27;20500;-42
2021/06/16 02:36:47;;;;;;;7.15;3.60;;;13.60;99.90;;;;;;5114880;27;20080;-44
2021/06/16 02:39:16;;;;;;;7.43;3.25;;;13.60;99.90;;;;;;5109522;27;20497;-42
2021/06/16 02:41:44;;;;;;;5.78;3.50;;;13.60;99.90;;;;;;5101268;28;20550;-42
2021/06/16 02:44:11;;;;;;;7.20;3.97;;;13.60;99.90;;;;;;5089231;28;20097;-42
2021/06/16 02:46:37;;;;;;;6.60;3.42;;;13.60;99.90;;;;;;5111948;27;20024;-42
2021/06/16 02:49:05;;;;;;;5.75;3.47;;;13.60;99.90;;;;;;5127727;27;20546;-43
2021/06/16 02:51:32;;;;;;;7.43;3.42;;;13.60;99.90;;;;;;5107089;27;20054;-43
2021/06/16 02:53:58;;;;;;;5.88;3.10;;;13.60;99.90;;;;;;5109409;28;20480;-42
2021/06/16 02:56:25;;;;;;;5.03;3.03;;;13.50;99.90;;;;;;5108878;28;20370;-42
2021/06/16 02:58:52;;;;;;;5.78;3.72;;;13.50;99.90;;;;;;5109278;28;20077;-43
2021/06/16 03:01:19;;;;;;;5.65;3.13;;;13.50;99.90;;;;;;5101868;28;20374;-42
2021/06/16 03:03:48;;;;;;;7.22;3.50;;;13.40;99.90;;;;;;5116652;27;20057;-43
2021/06/16 03:06:18;;;;;;;3.95;3.42;;;13.40;99.90;;;;;;5125479;27;20011;-43
2021/06/16 03:08:45;;;;;;;8.68;3.70;;;13.40;99.90;;;;;;5111639;27;20095;-43
2021/06/16 03:11:12;;;;;;;6.90;2.90;;;13.40;99.90;;;;;;5090043;28;20074;-42
2021/06/16 03:13:38;;;;;;;3.45;2.80;;;13.40;99.90;;;;;;5088721;27;20032;-42
2021/06/16 03:16:04;;;;;;;7.30;3.72;;;13.40;99.90;;;;;;5089267;28;20016;-43
2021/06/16 03:18:30;;;;;;;5.88;3.28;;;13.40;99.90;;;;;;5096166;27;20058;-43
2021/06/16 03:20:58;;;;;;;5.18;3.35;;;13.40;99.90;;;;;;5090485;28;20055;-44
2021/06/16 03:23:25;;;;;;;6.50;3.42;;;13.40;99.90;;;;;;5087964;28;20020;-43
2021/06/16 03:25:53;;;;;;;4.10;2.70;;;13.40;99.90;;;;;;5089185;27;20039;-43
2021/06/16 03:28:20;;;;;;;4.45;3.10;;;13.40;99.90;;;;;;5089269;27;20016;-44
2021/06/16 03:30:46;;;;;;;8.48;3.50;;;13.40;99.90;;;;;;5088072;27;20047;-43
2021/06/16 03:33:12;;;;;;;9.63;3.75;;;13.30;99.90;;;;;;5087385;28;20509;-41
2021/06/16 03:35:38;;;;;;;5.00;3.22;;;13.30;99.90;;;;;;5088614;28;20016;-41
2021/06/16 03:38:04;;;;;;;8.18;4.00;;;13.30;99.90;;;;;;5088484;28;20036;-41
2021/06/16 03:40:30;;;;;;;6.30;3.25;;;13.30;99.90;;;;;;5087692;28;20024;-41
2021/06/16 03:42:57;;;;;;;5.53;3.10;;;13.30;99.90;;;;;;5089341;27;20099;-41
2021/06/16 03:45:24;;;;;;;4.72;3.30;;;13.30;99.90;;;;;;5105747;27;20026;-41
2021/06/16 03:47:55;;;;;;;5.18;2.97;;;13.30;99.90;;;;;;5099883;28;20433;-41
2021/06/16 03:50:22;;;;;;;7.63;3.53;;;13.30;99.90;;;;;;5095327;28;20521;-41
2021/06/16 03:52:47;;;;;;;8.88;3.42;;;13.40;99.90;;;;;;5097803;28;20063;-42
2021/06/16 03:55:16;;;;;;;5.63;3.08;;;13.40;99.90;;;;;;5095828;27;20096;-41
2021/06/16 03:57:42;;;;;;;5.80;3.58;;;13.40;99.90;;;;;;5089585;27;20409;-41
2021/06/16 04:00:08;;;;;;;6.07;2.88;;;13.40;99.90;;;;;;5094270;27;20036;-41
2021/06/16 04:02:35;;;;;;;7.55;3.15;;;13.40;99.90;;;;;;5088946;28;20017;-42
2021/06/16 04:05:02;;;;;;;6.25;3.40;;;13.30;99.90;;;;;;5094939;27;20028;-42
2021/06/16 04:07:29;;;;;;;3.92;2.83;;;13.30;99.90;;;;;;5109420;27;20023;-42
2021/06/16 04:09:55;;;;;;;6.20;3.08;;;13.40;99.90;;;;;;5115493;27;20503;-42
2021/06/16 04:12:21;;;;;;;7.93;3.72;;;13.40;99.90;;;;;;5107003;27;20027;-42
2021/06/16 04:14:47;;;;;;;6.05;3.22;;;13.40;99.90;;;;;;5109045;28;20039;-41
2021/06/16 04:17:16;;;;;;;6.95;3.38;;;13.40;99.90;;;;;;5102371;28;20039;-41
2021/06/16 04:19:41;;;;;;;4.38;2.97;;;13.40;99.90;;;;;;5107952;28;20073;-42
2021/06/16 04:22:07;;;;;;;6.10;2.95;;;13.50;99.90;;;;;;5107746;28;20234;-45
2021/06/16 04:24:33;;;;;;;5.63;2.90;;;13.50;99.90;;;;;;5094745;28;20083;-41
2021/06/16 04:26:58;;;;;;;6.85;3.30;;;13.50;99.90;;;;;;5096887;28;20077;-42
2021/06/16 04:29:24;;;;;;;7.47;3.45;;;13.50;99.90;;;;;;5096853;28;20262;-41
2021/06/16 04:31:50;;;;;;;6.10;3.50;;;13.60;99.90;;;;;;5089935;28;20296;-42
2021/06/16 04:34:15;;;;;;;5.63;3.20;;;13.60;99.90;;;;;;5089294;28;20032;-42
2021/06/16 04:36:41;;;;;;;4.60;2.58;;;13.60;99.90;;;;;;5090319;28;20055;-42
2021/06/16 04:39:08;;;;;;;6.68;2.80;;;13.70;99.90;;;;;;5091867;28;20032;-42
2021/06/16 04:41:33;;;;;;;5.47;3.40;;;13.70;99.90;;;;;;5120466;27;20024;-41
2021/06/16 04:43:59;;;;;;;4.80;2.78;;;13.80;99.90;;;;;;5098124;28;20388;-42
2021/06/16 04:46:25;;;;;;;8.68;2.92;;;13.80;99.90;;;;;;5102037;28;20552;-42
2021/06/16 04:48:51;;;;;;;6.45;2.97;;;13.90;99.90;;;;;;5108635;28;20076;-42
2021/06/16 04:51:17;;;;;;;5.07;3.25;;;13.90;99.90;;;;;;5106869;28;20027;-41
2021/06/16 04:53:42;;;;;;;5.53;3.28;;;13.90;99.90;;;;;;5108691;28;20031;-42
2021/06/16 04:56:08;;;;;;;7.03;3.30;;;14.00;99.90;;;;;;5100276;28;20456;-42
2021/06/16 04:58:33;;;;;;;7.03;3.33;;;14.10;99.90;;;;;;5096671;28;20042;-42
2021/06/16 05:00:59;;;;;;;5.90;3.10;;;14.10;99.90;;;;;;5088912;28;20027;-41
2021/06/16 05:03:25;;;;;;;9.65;3.30;;;14.10;99.90;;;;;;5104848;28;20023;-42
2021/06/16 05:05:50;;;;;;;7.55;3.70;;;14.20;99.90;;;;;;5111570;28;20403;-42
2021/06/16 05:08:15;;;;;;;5.30;3.33;;;14.20;99.90;;;;;;5100072;28;20035;-42
2021/06/16 05:10:41;;;;;;;5.80;3.83;;;14.30;99.90;;;;;;5113120;28;20026;-42
2021/06/16 05:13:06;;;;;;;12.00;3.65;;;14.30;99.90;;;;;;5122816;28;20026;-42
2021/06/16 05:15:32;;;;;;;9.20;4.07;;;14.40;99.90;;;;;;5107571;28;20027;-42
2021/06/16 05:17:58;;;;;;;7.22;3.55;;;14.40;99.90;;;;;;5103412;28;20019;-42
2021/06/16 05:20:25;;;;;;;7.45;3.70;;;14.50;99.90;;;;;;5104008;28;20030;-42
2021/06/16 05:22:50;;;;;;;9.93;4.25;;;14.60;99.90;;;;;;5108808;28;20107;-42
2021/06/16 05:25:17;;;;;;;8.27;3.92;;;14.60;99.90;;;;;;5111364;28;20107;-42
2021/06/16 05:27:43;;;;;;;8.63;3.78;;;14.70;99.90;;;;;;5108592;28;20569;-42
2021/06/16 05:30:09;;;;;;;8.65;4.30;;;14.80;99.90;;;;;;5108471;28;20043;-42
2021/06/16 05:32:35;;;;;;;8.43;4.10;;;14.90;99.90;;;;;;5111132;27;20032;-42
2021/06/16 05:35:01;;;;;;;12.43;4.50;;;14.90;99.90;;;;;;5108210;28;20377;-43
2021/06/16 05:37:26;;;;;;;11.60;4.30;;;15.00;99.90;;;;;;5104955;28;20034;-42
2021/06/16 05:39:52;;;;;;;10.13;4.47;;;15.10;99.90;;;;;;5109793;28;20650;-42
2021/06/16 05:42:18;;;;;;;10.05;4.70;;;15.20;99.90;;;;;;5107044;28;20473;-42
2021/06/16 05:44:43;;;;;;;7.18;4.57;;;15.30;99.90;;;;;;5109618;28;20088;-42
2021/06/16 05:47:09;;;;;;;7.25;4.93;;;15.30;99.90;;;;;;5111158;28;20030;-42
2021/06/16 05:49:36;;;;;;;12.18;5.55;;;15.30;99.90;;;;;;5110732;28;20023;-43
2021/06/16 05:52:01;;;;;;;9.52;5.05;;;15.40;99.90;;;;;;5114628;27;20076;-43
2021/06/16 05:54:27;;;;;;;10.90;5.10;;;15.50;99.90;;;;;;5100854;28;20027;-42
2021/06/16 05:56:53;;;;;;;9.15;4.43;;;15.60;99.90;;;;;;5102092;27;20071;-42
2021/06/16 05:59:21;;;;;;;17.38;5.47;;;15.60;99.90;;;;;;5102227;28;20534;-42
2021/06/16 06:01:47;;;;;;;10.90;5.50;;;15.60;99.90;;;;;;5100519;27;20197;-42
2021/06/16 06:04:12;;;;;;;12.40;5.15;;;15.70;99.90;;;;;;5109344;28;20102;-42
2021/06/16 06:06:38;;;;;;;10.70;4.80;;;15.80;99.90;;;;;;5110214;28;20020;-42
2021/06/16 06:09:08;;;;;;;7.65;5.22;;;15.80;99.90;;;;;;5103402;28;20254;-43
2021/06/16 06:11:34;;;;;;;8.90;5.28;;;15.90;99.90;;;;;;5110595;27;20126;-42
2021/06/16 06:14:01;;;;;;;8.23;5.50;;;15.90;99.90;;;;;;5110195;27;20116;-42
2021/06/16 06:16:27;;;;;;;13.52;5.95;;;16.00;99.90;;;;;;5095016;28;20028;-42
2021/06/16 06:18:52;;;;;;;10.15;6.00;;;16.10;99.90;;;;;;5098282;28;20376;-43
2021/06/16 06:21:18;;;;;;;8.73;5.18;;;16.20;99.90;;;;;;5108170;28;20024;-42
2021/06/16 06:23:44;;;;;;;10.57;6.50;;;16.30;99.90;;;;;;5098161;27;20481;-42
2021/06/16 06:26:10;;;;;;;10.88;6.13;;;16.40;99.90;;;;;;5104591;28;20220;-42
2021/06/16 06:28:36;;;;;;;9.40;6.03;;;16.50;99.90;;;;;;5097653;28;20158;-43
2021/06/16 06:31:03;;;;;;;14.55;6.47;;;16.60;99.90;;;;;;5102368;27;20024;-43
2021/06/16 06:33:28;;;;;;;7.25;4.85;;;16.70;99.90;;;;;;5100830;27;20030;-43
2021/06/16 06:35:54;;;;;;;11.70;6.10;;;16.80;99.90;;;;;;5098136;27;20028;-42
2021/06/16 06:38:19;;;;;;;10.68;6.10;;;16.90;99.90;;;;;;5108012;27;20019;-42
2021/06/16 06:40:45;;;;;;;10.73;6.28;;;17.10;99.90;;;;;;5095578;27;20161;-43
2021/06/16 06:43:10;;;;;;;12.65;5.65;;;17.20;99.90;;;;;;5091703;28;20047;-43
2021/06/16 06:45:36;;;;;;;9.52;5.82;;;17.30;99.90;;;;;;5089258;28;20056;-43
2021/06/16 06:48:01;;;;;;;13.57;6.13;;;17.50;99.90;;;;;;5086830;28;20028;-43
2021/06/16 06:50:27;;;;;;;10.77;6.03;;;17.60;99.90;;;;;;5089016;27;20031;-43
2021/06/16 06:52:52;;;;;;;10.82;5.95;;;17.70;99.90;;;;;;5089966;27;20031;-43
2021/06/16 06:55:18;;;;;;;10.38;6.45;;;17.90;99.90;;;;;;5089865;27;20089;-44
2021/06/16 06:57:44;;;;;;;9.18;5.35;;;18.10;99.90;;;;;;5088605;27;20127;-43
2021/06/16 07:00:11;;;;;;;12.10;6.68;;;18.20;99.90;;;;;;5089605;27;20328;-43
2021/06/16 07:02:37;;;;;;;9.55;6.80;;;18.30;99.90;;;;;;5092286;27;20436;-43
2021/06/16 07:05:04;;;;;;;9.00;5.85;;;18.40;99.90;;;;;;5092617;27;20074;-41
2021/06/16 07:07:30;;;;;;;11.65;6.55;;;18.50;99.90;;;;;;5088005;27;20024;-41
2021/06/16 07:09:55;;;;;;;16.75;6.78;;;18.60;99.90;;;;;;5086920;27;20085;-41
2021/06/16 07:12:21;;;;;;;10.68;7.05;;;18.70;99.90;;;;;;5091063;27;20131;-41
2021/06/16 07:14:46;;;;;;;11.13;7.00;;;18.80;99.90;;;;;;5096357;27;20027;-41
2021/06/16 07:17:12;;;;;;;8.35;6.47;;;18.90;99.90;;;;;;5091256;27;20040;-43
2021/06/16 07:19:38;;;;;;;10.68;6.95;;;19.00;99.90;;;;;;5089531;27;20198;-41
2021/06/16 07:22:04;;;;;;;12.73;7.78;;;19.20;99.90;;;;;;5111816;27;20020;-41
2021/06/16 07:24:30;;;;;;;11.13;7.07;;;19.30;99.90;;;;;;5097752;28;20496;-40
2021/06/16 07:26:56;;;;;;;11.57;7.50;;;19.50;99.90;;;;;;5100639;27;20058;-41
2021/06/16 07:29:22;;;;;;;12.00;7.00;;;19.60;99.90;;;;;;5100516;27;20505;-42
2021/06/16 07:31:48;;;;;;;9.65;6.13;;;19.80;99.90;;;;;;5114435;27;20048;-41
2021/06/16 07:34:14;;;;;;;12.40;7.85;;;19.90;99.90;;;;;;5110914;27;20031;-42
2021/06/16 07:36:39;;;;;;;10.90;7.18;;;20.10;99.90;;;;;;5117864;27;20016;-42
2021/06/16 07:39:06;;;;;;;10.43;7.88;;;20.20;99.90;;;;;;5124528;27;20058;-42
2021/06/16 07:41:31;;;;;;;10.27;7.20;;;20.40;99.90;;;;;;5103717;27;20111;-42
2021/06/16 07:43:57;;;;;;;11.48;7.90;;;20.60;99.90;;;;;;5107662;28;20019;-43
2021/06/16 07:46:23;;;;;;;12.50;8.52;;;20.90;99.90;;;;;;5101147;28;20522;-42
2021/06/16 07:48:50;;;;;;;15.15;8.60;;;21.00;99.90;;;;;;5108873;28;20039;-42
2021/06/16 07:51:19;;;;;;;10.63;7.70;;;21.10;99.90;;;;;;5104292;28;20027;-43
2021/06/16 07:53:45;;;;;;;14.13;9.02;;;21.40;99.90;;;;;;5101596;28;20023;-43
2021/06/16 07:56:12;;;;;;;10.00;7.60;;;21.60;99.90;;;;;;5127851;27;20460;-43
2021/06/16 07:58:37;;;;;;;10.30;7.70;;;21.90;99.90;;;;;;5129509;27;20015;-42
2021/06/16 08:01:03;;;;;;;11.05;7.95;;;22.10;99.90;;;;;;5096935;27;20051;-43
2021/06/16 08:03:29;;;;;;;14.73;8.13;;;22.40;99.90;;;;;;5108083;28;20469;-42
2021/06/16 08:05:55;;;;;;;11.70;8.05;;;22.60;99.90;;;;;;5106318;28;20043;-43
2021/06/16 08:08:21;;;;;;;11.38;7.00;;;22.90;99.90;;;;;;5107301;28;20478;-42
2021/06/16 08:10:46;;;;;;;11.80;6.20;;;23.60;99.90;;;;;;5101333;28;20090;-43
2021/06/16 08:13:12;;;;;;;14.60;6.20;;;24.40;99.80;;;;;;5116398;27;20501;-43
2021/06/16 08:15:38;;;;;;;12.88;6.28;;;26.10;95.70;;;;;;5113019;27;20051;-42
2021/06/16 08:18:04;;;;;;;7.88;5.25;;;27.40;91.10;;;;;;5107656;28;20028;-43
2021/06/16 08:20:29;;;;;;;9.65;4.88;;;28.20;86.20;;;;;;5103289;28;20092;-43
2021/06/16 08:22:55;;;;;;;9.07;5.30;;;28.80;83.80;;;;;;5100130;28;20023;-43
2021/06/16 08:25:21;;;;;;;10.10;4.80;;;30.20;75.00;;;;;;5117064;28;20160;-45
2021/06/16 08:27:46;;;;;;;5.57;4.75;;;31.40;69.20;;;;;;5099537;28;20100;-43
2021/06/16 08:30:14;;;;;;;9.57;5.10;;;32.00;64.80;;;;;;5095993;28;20066;-43
2021/06/16 08:32:41;;;;;;;7.38;4.88;;;32.60;61.70;;;;;;5092328;28;20024;-44
2021/06/16 08:35:08;;;;;;;11.25;5.20;;;32.60;58.90;;;;;;5110513;28;20026;-43
2021/06/16 08:37:33;;;;;;;5.78;5.07;;;32.70;58.20;;;;;;5105743;28;20027;-44
2021/06/16 08:39:59;;;;;;;6.90;4.15;;;32.60;58.50;;;;;;5110587;28;20024;-43
2021/06/16 08:42:28;;;;;;;8.38;4.70;;;33.20;57.90;;;;;;5109072;28;20047;-43
2021/06/16 08:44:56;;;;;;;4.80;4.13;;;33.90;56.00;;;;;;5103564;28;20481;-43
2021/06/16 08:47:23;;;;;;;8.40;5.55;;;33.90;55.30;;;;;;5098981;28;20034;-43
2021/06/16 08:49:49;;;;;;;7.63;5.85;;;34.50;54.70;;;;;;5125194;28;20055;-46
2021/06/16 08:52:16;;;;;;;6.28;4.82;;;34.00;52.60;;;;;;5106184;27;20085;-46
2021/06/16 08:54:41;;;;;;;8.27;5.30;;;34.40;53.40;;;;;;5105407;28;20048;-43
2021/06/16 08:57:07;;;;;;;9.52;4.68;;;34.50;53.80;;;;;;5106077;28;20050;-45
2021/06/16 08:59:33;;;;;;;10.02;5.38;;;35.60;52.00;;;;;;5117805;27;20030;-44
2021/06/16 09:01:59;;;;;;;8.55;4.88;;;36.60;49.80;;;;;;5101435;27;20012;-44
2021/06/16 09:04:48;;;;;;;7.75;5.35;;;36.40;50.40;;;;;;5111531;28;20030;-44
2021/06/16 09:07:21;;;;;;;6.72;5.00;;;36.90;49.40;;;;;;5105296;27;20024;-45
2021/06/16 09:09:49;;;;;;;9.55;4.45;;;37.30;49.30;;;;;;5111489;27;20059;-46
2021/06/16 09:12:29;;;;;;;6.93;4.73;;;38.10;47.60;;;;;;5108428;27;20016;-44
2021/06/16 09:14:56;;;;;;;6.40;5.15;;;37.60;48.10;;;;;;5106530;27;20023;-45
2021/06/16 09:17:22;;;;;;;75.60;67.68;;;37.70;49.00;;;;;;5094364;28;20020;-44
2021/06/16 09:19:56;;;;;;;46.60;41.75;;;38.20;46.80;;;;;;5099452;27;20158;-43
2021/06/16 09:22:35;;;;;;;7.72;5.22;;;39.10;45.70;;;;;;5102579;27;20019;-43
2021/06/16 09:25:06;;;;;;;7.57;5.57;;;39.30;44.80;;;;;;5120887;27;20024;-44
2021/06/16 09:27:47;;;;;;;9.25;5.93;;;38.40;45.40;;;;;;5134127;27;20291;-44
2021/06/16 09:30:19;;;;;;;6.65;5.30;;;38.10;46.40;;;;;;5101067;27;20716;-44
2021/06/16 09:32:46;;;;;;;22.05;19.83;;;38.80;45.50;;;;;;5109396;28;20020;-43
2021/06/16 09:35:32;;;;;;;62.90;56.63;;;39.10;44.90;;;;;;5102558;28;20024;-44
2021/06/16 09:38:01;;;;;;;16.08;14.45;;;39.20;45.00;;;;;;5102836;28;20038;-43
2021/06/16 09:40:32;;;;;;;6.93;6.18;;;39.30;45.90;;;;;;5103338;28;20027;-44
2021/06/16 09:43:04;;;;;;;10.45;6.28;;;38.80;44.50;;;;;;5102309;27;20365;-44
2021/06/16 09:45:31;;;;;;;7.18;5.78;;;38.60;45.50;;;;;;5096860;27;20093;-44
2021/06/16 09:47:56;;;;;;;21.13;18.90;;;39.10;42.80;;;;;;5117406;27;20102;-44
2021/06/16 09:50:24;;;;;;;40.22;36.28;;;39.20;44.00;;;;;;5132820;27;20156;-43
2021/06/16 09:52:50;;;;;;;7.15;6.00;;;39.90;42.80;;;;;;5117436;27;20455;-43
2021/06/16 09:55:29;;;;;;;6.70;6.00;;;40.60;41.70;;;;;;5109761;28;21478;-44
2021/06/16 09:57:58;;;;;;;;;;;39.70;41.90;;;;;;5111519;28;20027;-44
2021/06/16 10:00:31;;;;;;;7.80;6.00;;;38.70;42.50;;;;;;5103994;28;20386;-43
2021/06/16 10:03:26;;;;;;;9.57;5.88;;;38.60;42.80;;;;;;5098869;28;20057;-43
2021/06/16 10:06:27;;;;;;;7.03;6.22;;;38.90;44.10;;;;;;5101202;28;20031;-43
2021/06/16 10:08:52;;;;;;;12.23;6.93;;;37.80;44.50;;;;;;5027705;28;20480;-42
2021/06/16 10:11:20;;;;;;;11.38;6.78;;;37.20;46.20;;;;;;5090699;28;20088;-44
2021/06/16 10:13:47;;;;;;;10.15;6.78;;;37.80;45.80;;;;;;5113525;27;20020;-44
2021/06/16 10:16:14;;;;;;;9.02;6.43;;;38.00;45.10;;;;;;5104020;27;20027;-43
2021/06/16 10:18:43;;;;;;;7.20;6.45;;;38.50;45.20;;;;;;5112160;28;20015;-43
2021/06/16 10:21:11;;;;;;;10.85;7.30;;;36.90;46.10;;;;;;5109780;28;20098;-44
2021/06/16 10:23:37;;;;;;;16.20;7.97;;;36.10;47.40;;;;;;5119107;27;20019;-44
2021/06/16 10:26:06;;;;;;;13.30;8.82;;;34.80;49.40;;;;;;5119089;27;20026;-44
2021/06/16 10:28:38;;;;;;;11.57;8.38;;;34.00;50.40;;;;;;5108795;27;20024;-44
2021/06/16 10:31:05;;;;;;;12.60;8.05;;;33.50;51.40;;;;;;5089609;28;20127;-42
2021/06/16 10:33:37;;;;;;;9.13;7.82;;;34.00;52.70;;;;;;5104311;28;20501;-43
2021/06/16 10:36:10;;;;;;;14.88;10.02;;;33.50;51.50;;;;;;5114214;27;20027;-43
2021/06/16 10:38:36;;;;;;;8.60;7.50;;;33.30;50.80;;;;;;5110756;27;20015;-44
2021/06/16 10:41:02;;;;;;;9.77;7.97;;;34.10;51.10;;;;;;5099025;27;20024;-45
2021/06/16 10:43:38;;;;;;;12.88;8.40;;;35.10;50.00;;;;;;5102999;27;20099;-46
2021/06/16 10:46:12;;;;;;;12.93;7.85;;;35.70;48.80;;;;;;5104386;27;20086;-43
2021/06/16 10:48:59;;;;;;;7.43;6.72;;;37.00;46.90;;;;;;5108769;27;20068;-43
2021/06/16 10:51:27;;;;;;;8.13;6.63;;;37.60;46.30;;;;;;5101379;27;20389;-42
2021/06/16 10:54:14;;;;;;;9.63;6.40;;;38.30;46.00;;;;;;5106932;27;20036;-43
2021/06/16 10:56:42;;;;;;;9.05;6.22;;;39.00;45.50;;;;;;5093881;27;20481;-43
2021/06/16 10:59:08;;;;;;;12.20;7.23;;;39.40;45.30;;;;;;5094444;27;20046;-47
2021/06/16 11:01:48;;;;;;;10.25;7.50;;;39.60;43.50;;;;;;5094698;27;20028;-43
2021/06/16 11:04:30;;;;;;;10.23;6.90;;;38.10;44.50;;;;;;5094683;27;20465;-43
2021/06/16 11:06:56;;;;;;;9.35;7.28;;;38.30;44.80;;;;;;5092777;27;20031;-43
2021/06/16 11:09:51;;;;;;;15.77;6.82;;;37.60;45.70;;;;;;5094063;27;20018;-48
2021/06/16 11:12:30;;;;;;;9.63;7.47;;;36.40;47.10;;;;;;5092305;27;20023;-43
2021/06/16 11:14:58;;;;;;;10.43;7.03;;;37.50;46.00;;;;;;5091587;27;20065;-43
2021/06/16 11:17:29;;;;;;;10.13;8.27;;;38.10;44.40;;;;;;5094859;27;20456;-43
2021/06/16 11:20:10;;;;;;;11.70;6.65;;;37.10;46.90;;;;;;5107075;27;20025;-43
2021/06/16 11:22:45;;;;;;;9.27;7.32;;;38.10;45.30;;;;;;5100243;27;20022;-43
2021/06/16 11:25:29;;;;;;;8.75;7.85;;;38.10;45.30;;;;;;5096161;27;20031;-47
2021/06/16 11:28:20;;;;;;;10.45;7.47;;;38.10;45.90;;;;;;5104577;28;20039;-43
2021/06/16 11:30:55;;;;;;;11.88;9.27;;;38.00;45.50;;;;;;5096689;28;20023;-43
2021/06/16 11:35:49;;;;;;;10.65;7.75;;;36.20;47.70;;;;;;5091050;28;20068;-43
2021/06/16 11:38:17;;;;;;;8.20;6.57;;;37.10;47.40;;;;;;5099187;28;20027;-43
2021/06/16 11:40:58;;;;;;;9.18;7.70;;;37.40;48.00;;;;;;5107132;28;20284;-43
2021/06/16 11:43:37;;;;;;;11.07;8.23;;;37.40;44.70;;;;;;5109246;28;20023;-43
2021/06/16 11:46:28;;;;;;;13.52;7.85;;;36.00;47.20;;;;;;5093999;27;20351;-44
2021/06/16 11:49:01;;;;;;;10.05;7.85;;;36.30;47.50;;;;;;5089741;28;20236;-46
2021/06/16 11:52:05;;;;;;;8.20;7.30;;;36.70;48.20;;;;;;5094869;27;20031;-42
2021/06/16 11:54:35;;;;;;;11.93;7.60;;;36.30;47.80;;;;;;5098568;28;20046;-43
2021/06/16 11:57:09;;;;;;;10.52;8.65;;;35.30;48.50;;;;;;5093285;27;20104;-42
2021/06/16 11:59:49;;;;;;;15.32;9.38;;;35.30;48.10;;;;;;5089270;27;20040;-43
2021/06/16 12:02:28;;;;;;;12.52;10.10;;;34.70;50.70;;;;;;5094948;28;20020;-44
2021/06/16 12:05:01;;;;;;;11.20;8.48;;;34.30;51.20;;;;;;5092890;27;20095;-43
2021/06/16 12:07:45;;;;;;;10.10;8.43;;;34.20;52.40;;;;;;5089070;28;20405;-44
2021/06/16 12:10:13;;;;;;;10.85;8.15;;;33.80;52.20;;;;;;5113847;27;20031;-44
2021/06/16 12:12:56;;;;;;;11.00;9.20;;;33.90;52.80;;;;;;5119997;27;20031;-44
2021/06/16 12:15:30;;;;;;;11.80;9.77;;;33.50;54.20;;;;;;5107397;27;20110;-43
2021/06/16 12:18:09;;;;;;;12.48;8.13;;;33.50;51.70;;;;;;5111010;28;20312;-43
2021/06/16 12:20:39;;;;;;;10.77;8.63;;;33.70;54.10;;;;;;5098617;28;20028;-44
2021/06/16 12:23:21;;;;;;;12.73;10.15;;;33.40;53.40;;;;;;5098698;28;20028;-43
2021/06/16 12:25:47;;;;;;;15.23;9.13;;;33.00;54.30;;;;;;5102167;28;20031;-43
2021/06/16 12:28:15;;;;;;;14.15;10.45;;;32.50;54.10;;;;;;5093222;27;20350;-43
2021/06/16 12:30:41;;;;;;;14.25;8.88;;;32.30;55.00;;;;;;5101879;27;20032;-43
2021/06/16 12:33:13;;;;;;;15.63;9.65;;;32.30;55.80;;;;;;5098586;27;20020;-43
2021/06/16 12:35:42;;;;;;;13.60;8.98;;;32.30;56.10;;;;;;5096711;27;20020;-44
2021/06/16 12:38:10;;;;;;;11.85;9.38;;;32.50;55.90;;;;;;5096588;27;20020;-42
2021/06/16 12:40:39;;;;;;;10.15;8.63;;;32.40;56.00;;;;;;5092703;27;20012;-43
2021/06/16 12:43:08;;;;;;;12.43;9.52;;;32.50;54.90;;;;;;5098441;27;20020;-44
2021/06/16 12:45:36;;;;;;;10.70;9.47;;;32.30;54.80;;;;;;5095538;27;20090;-42
2021/06/16 12:48:27;;;;;;;12.00;9.00;;;32.20;55.10;;;;;;5104205;27;20095;-43
2021/06/16 12:50:58;;;;;;;11.57;9.38;;;32.10;55.30;;;;;;5095938;27;20027;-43
2021/06/16 12:53:24;;;;;;;14.30;9.20;;;31.90;56.30;;;;;;5096665;27;20414;-43